Latest Weather Observations for Gympie

IDQ60901

Issued at 1:11 pm EST Saturday 1 October 2016 (issued every 10 minutes, with the page automatically refreshed every 10 minutes)

About weather observations | Map of Brisbane area stations | Latest observations for Brisbane area | Other Formats
Station Details ID: 040093 Name: GYMPIE Lat: -26.18 Lon: 152.64 Height: 64.5 m
Data from the previous 72 hours. | See also: Recent months at Gympie
Date/Time
EST
Temp
°C
App
Temp
°C
Dew
Point
°C
Rel
Hum
%
Delta-T
°C
Wind Press
QNH
hPa
Press
MSL
hPa
Rain since
9am
mm
Dir  Spd
km/h
Gust
km/h
Spd
kts
Gust
kts
01/01:00pm 26.3 - - - - WNW 19 28 10 15 1012.1 1011.9 0.0
01/12:30pm 26.1 - - - - WSW 13 19 7 10 1012.3 1012.1 0.0
01/12:00pm 25.5 - - - - WNW 17 28 9 15 1012.8 1012.6 0.0
01/11:30am 24.3 - - - - NW 19 32 10 17 1013.2 1013.0 0.0
01/11:00am 24.1 - - - - W 20 35 11 19 1013.7 1013.5 0.0
01/10:30am 23.5 - - - - W 19 33 10 18 1014.0 1013.8 0.0
01/10:00am 23.4 - - - - WNW 17 30 9 16 1014.0 1013.8 0.0
01/09:30am 22.0 - - - - W 7 13 4 7 1014.4 1014.3 0.0
01/09:00am 21.1 - - - - WNW 7 13 4 7 1014.7 1014.6 0.0
01/08:30am 18.6 - - - - CALM 0 0 0 0 1014.8 1014.7 0.0
01/08:00am 15.5 - - - - CALM 0 0 0 0 1014.6 1014.5 0.0
01/07:30am 12.4 - - - - CALM 0 0 0 0 1014.8 1014.7 0.0
01/07:00am 10.2 - - - - CALM 0 0 0 0 1014.4 1014.3 0.0
01/06:30am 7.3 - - - - CALM 0 0 0 0 1013.7 1013.5 0.0
01/06:00am 6.0 - - - - CALM 0 0 0 0 1013.2 1013.0 0.0
01/05:30am 6.0 - - - - CALM 0 0 0 0 1012.8 1012.6 0.0
01/05:00am 6.1 - - - - CALM 0 0 0 0 1012.2 1012.0 0.0
01/04:30am 6.1 - - - - CALM 0 0 0 0 1011.6 1011.4 0.0
01/04:00am 6.5 - - - - SW 2 4 1 2 1011.4 1011.2 0.0
01/03:30am 6.1 - - - - CALM 0 0 0 0 1011.1 1010.9 0.0
01/03:00am 7.0 - - - - CALM 0 2 0 1 1011.2 1011.0 0.0
01/02:30am 7.4 - - - - CALM 0 0 0 0 1011.4 1011.2 0.0
01/02:00am 8.0 - - - - N 2 4 1 2 1011.3 1011.1 0.0
01/01:30am 8.5 - - - - CALM 0 0 0 0 1011.2 1011.0 0.0
01/01:00am 9.0 - - - - N 4 6 2 3 1011.4 1011.2 0.0
01/12:30am 8.8 - - - - SW 4 6 2 3 1011.0 1010.8 0.0
01/12:00am 10.2 - - - - CALM 0 0 0 0 1011.2 1011.0 0.0
 
Date/Time
EST
Temp
°C
App
Temp
°C
Dew
Point
°C
Rel
Hum
%
Delta-T
°C
Wind Press
QNH
hPa
Press
MSL
hPa
Rain since
9am
mm
Dir  Spd
km/h
Gust
km/h
Spd
kts
Gust
kts
30/11:30pm 10.5 - - - - CALM 0 0 0 0 1011.4 1011.2 0.0
30/11:00pm 10.5 - - - - CALM 0 2 0 1 1011.3 1011.1 0.0
30/10:30pm 11.8 - - - - N 4 7 2 4 1011.2 1011.0 0.0
30/10:00pm 13.5 - - - - N 6 6 3 3 1011.4 1011.2 0.0
30/09:30pm 15.1 - - - - NNW 4 6 2 3 1011.1 1010.9 0.0
30/09:00pm 15.0 - - - - NW 4 6 2 3 1010.9 1010.7 0.0
30/08:30pm 15.7 - - - - WSW 4 9 2 5 1010.5 1010.3 0.0
30/08:00pm 19.5 - - - - CALM 0 2 0 1 1009.8 1009.6 0.0
30/07:30pm 20.3 - - - - W 2 11 1 6 1009.3 1009.1 0.0
30/07:00pm 21.8 - - - - WNW 9 20 5 11 1008.7 1008.5 0.0
30/06:30pm 21.9 - - - - WNW 9 20 5 11 1008.0 1007.8 0.0
30/06:00pm 22.8 - - - - WNW 11 20 6 11 1007.4 1007.2 0.0
30/05:30pm 24.1 - - - - W 17 30 9 16 1007.0 1006.8 0.0
30/05:00pm 25.2 - - - - W 15 24 8 13 1006.4 1006.3 0.0
30/04:30pm 25.8 - - - - NW 17 28 9 15 1005.8 1005.7 0.0
30/04:00pm 26.2 - - - - WNW 22 37 12 20 1005.3 1005.2 0.0
30/03:30pm 26.4 - - - - WNW 24 43 13 23 1005.1 1005.0 0.0
30/03:00pm 26.8 - - - - WNW 26 43 14 23 1004.8 1004.7 0.0
30/02:30pm 26.5 - - - - NW 22 39 12 21 1004.7 1004.6 0.0
30/02:00pm 26.2 - - - - WNW 20 39 11 21 1005.0 1004.9 0.0
30/01:30pm 25.8 - - - - WNW 22 32 12 17 1005.2 1005.1 0.0
30/01:00pm 25.7 - - - - WNW 19 33 10 18 1005.7 1005.6 0.0
30/12:30pm 25.0 - - - - NW 22 43 12 23 1006.2 1006.1 0.0
30/12:00pm 24.6 - - - - WNW 17 26 9 14 1007.0 1006.8 0.0
30/11:30am 23.7 - - - - WNW 22 35 12 19 1007.2 1007.0 0.0
30/11:00am 22.9 - - - - WNW 22 39 12 21 1007.7 1007.5 0.0
30/10:30am 23.4 - - - - WNW 11 20 6 11 1007.7 1007.5 0.0
30/10:00am 22.9 - - - - W 17 26 9 14 1007.9 1007.7 0.0
30/09:30am 22.3 - - - - W 17 26 9 14 1008.1 1007.9 0.0
30/09:00am 21.6 - - - - WSW 13 20 7 11 1008.2 1008.0 2.4
30/08:30am 21.4 - - - - WNW 15 20 8 11 1008.4 1008.2 2.4
30/08:00am 20.9 - - - - WSW 13 22 7 12 1008.5 1008.3 2.4
30/07:30am 20.7 - - - - W 13 20 7 11 1008.0 1007.8 2.4
30/07:00am 20.4 - - - - W 9 15 5 8 1007.9 1007.7 2.4
30/06:30am 19.9 20.8 16.0 78 2.3 W 6 9 3 5 1007.4 1007.2 2.4
30/06:00am 19.9 21.3 17.7 87 1.4 WSW 7 11 4 6 1006.7 1006.6 2.4
30/05:30am 20.2 21.7 18.9 92 0.8 NNW 9 13 5 7 1006.1 1006.0 2.2
30/05:00am 20.5 - - - - NNW 15 20 8 11 1005.8 1005.7 2.2
30/04:30am 20.1 - - - - N 11 19 6 10 1005.6 1005.5 2.2
30/04:00am 20.0 21.4 18.7 92 0.8 N 9 15 5 8 1005.4 1005.3 2.2
30/03:30am 20.1 21.2 18.8 92 0.8 N 11 17 6 9 1005.5 1005.4 2.2
30/03:00am 19.9 21.3 18.7 93 0.8 N 9 15 5 8 1005.5 1005.4 2.2
30/02:30am 20.4 14.8 -3.3 20 9.9 NNW 17 26 9 14 1006.3 1006.2 2.2
30/02:00am 20.2 20.8 18.7 91 0.9 NNW 13 28 7 15 1006.1 1006.0 2.2
30/01:30am 19.3 - - - - N 7 11 4 6 1006.6 1006.5 2.2
30/01:00am 18.8 - - - - N 4 6 2 3 1007.3 1007.1 2.2
30/12:30am 17.8 - - - - NNE 2 4 1 2 1007.9 1007.7 2.2
30/12:00am 18.6 - - - - N 6 11 3 6 1008.4 1008.2 2.2
 
Date/Time
EST
Temp
°C
App
Temp
°C
Dew
Point
°C
Rel
Hum
%
Delta-T
°C
Wind Press
QNH
hPa
Press
MSL
hPa
Rain since
9am
mm
Dir  Spd
km/h
Gust
km/h
Spd
kts
Gust
kts
29/11:30pm 17.3 - - - - CALM 0 0 0 0 1008.5 1008.3 2.2
29/11:00pm 17.2 - - - - CALM 0 0 0 0 1008.7 1008.5 2.2
29/10:30pm 17.2 - - - - CALM 0 0 0 0 1008.7 1008.5 2.2
29/10:00pm 17.3 - - - - N 4 6 2 3 1008.9 1008.7 2.2
29/09:30pm 17.1 - - - - CALM 0 2 0 1 1009.1 1008.9 2.2
29/09:00pm 17.4 - - - - NNW 6 7 3 4 1009.3 1009.1 2.2
29/08:30pm 17.1 - - - - N 6 9 3 5 1009.3 1009.1 2.2
29/08:00pm 16.8 - - - - N 2 2 1 1 1009.5 1009.3 2.2
29/07:30pm 16.9 - - - - CALM 0 2 0 1 1009.3 1009.1 2.2
29/07:00pm 16.7 18.1 15.4 92 0.8 W 2 4 1 2 1009.1 1008.9 2.2
29/06:30pm 17.3 19.1 15.6 90 1.0 CALM 0 2 0 1 1008.9 1008.7 2.0
29/06:00pm 17.8 19.4 16.0 89 1.1 NNW 2 6 1 3 1008.7 1008.5 2.0
29/05:30pm 17.9 18.8 16.1 89 1.1 N 6 11 3 6 1008.4 1008.2 2.0
29/05:00pm 17.7 18.4 16.0 90 1.0 N 7 15 4 8 1008.6 1008.4 2.0
29/04:30pm 17.9 18.9 16.4 91 0.9 NNW 6 9 3 5 1008.7 1008.5 1.8
29/04:00pm 18.2 19.0 16.4 89 1.1 NNW 7 11 4 6 1008.2 1008.0 1.4
29/03:30pm 19.0 19.7 15.7 81 2.0 NNW 6 7 3 4 1007.7 1007.5 0.4
29/03:00pm 19.7 19.4 14.3 71 3.1 NW 9 13 5 7 1008.2 1008.0 0.2
29/02:30pm 19.8 20.0 14.6 72 3.0 WNW 7 13 4 7 1008.0 1007.8 0.2
29/02:00pm 20.3 20.4 15.5 74 2.9 WNW 9 15 5 8 1008.2 1008.0 0.2
29/01:30pm 20.6 20.6 15.2 71 3.2 NW 9 15 5 8 1008.6 1008.4 0.2
29/01:00pm 22.6 21.9 14.2 59 4.9 NNW 11 19 6 10 1008.6 1008.4 0.0
29/12:30pm 23.1 21.8 13.6 55 5.5 NW 13 20 7 11 1009.2 1009.0 0.0
29/12:00pm 23.7 22.1 13.8 53 5.8 NNW 15 24 8 13 1009.1 1008.9 0.0
29/11:30am 23.6 21.1 13.5 53 5.9 NNW 19 32 10 17 1010.1 1009.9 0.0
29/11:00am 23.4 20.7 13.6 54 5.7 NNW 20 37 11 20 1010.1 1009.9 0.0
29/10:30am 23.2 20.8 13.7 55 5.5 NNW 19 28 10 15 1009.9 1009.7 0.0
29/10:00am 22.9 19.4 13.4 55 5.5 NNW 24 39 13 21 1010.0 1009.8 0.0
29/09:30am 21.7 19.2 13.6 60 4.7 NW 19 33 10 18 1010.4 1010.2 0.0
29/09:00am 19.8 20.0 14.2 70 3.3 W 6 9 3 5 1010.4 1010.2 0.0
29/08:30am 16.7 17.0 13.4 81 1.9 NW 4 4 2 2 1010.0 1009.8 0.0
29/08:00am 15.7 16.4 12.3 80 1.9 CALM 0 4 0 2 1009.9 1009.7 0.0
29/07:30am 14.8 15.5 12.3 85 1.4 CALM 0 0 0 0 1010.7 1010.5 0.0
29/07:00am 13.8 13.6 11.7 87 1.1 N 4 4 2 2 1010.5 1010.3 0.0
29/06:30am 13.2 13.7 11.6 90 0.9 CALM 0 0 0 0 1010.7 1010.5 0.0
29/06:00am 12.7 13.1 11.1 90 0.8 CALM 0 0 0 0 1010.8 1010.6 0.0
29/05:30am 12.2 - - - - CALM 0 4 0 2 1010.2 1010.0 0.0
29/05:00am 12.3 - - - - CALM 0 0 0 0 1009.9 1009.7 0.0
29/04:30am 12.3 - - - - CALM 0 0 0 0 1010.1 1009.9 0.0
29/04:00am 12.1 11.2 6.0 66 2.9 CALM 0 0 0 0 1010.3 1010.1 0.0
29/03:30am 12.2 - - - - N 2 4 1 2 1010.3 1010.1 0.0
29/03:00am 12.2 - - - - CALM 0 0 0 0 1010.8 1010.6 0.0
29/02:30am 12.3 - - - - CALM 0 0 0 0 1010.8 1010.6 0.0
29/02:00am 12.8 - - - - CALM 0 0 0 0 1011.2 1011.0 0.0
29/01:30am 12.8 - - - - CALM 0 0 0 0 1011.3 1011.1 0.0
29/01:00am 12.9 - - - - CALM 0 0 0 0 1011.7 1011.5 0.0
29/12:30am 13.1 - - - - CALM 0 0 0 0 1012.1 1011.9 0.0
29/12:00am 13.4 - - - - CALM 0 0 0 0 1012.5 1012.3 0.0
 
Date/Time
EST
Temp
°C
App
Temp
°C
Dew
Point
°C
Rel
Hum
%
Delta-T
°C
Wind Press
QNH
hPa
Press
MSL
hPa
Rain since
9am
mm
Dir  Spd
km/h
Gust
km/h
Spd
kts
Gust
kts
28/11:30pm 13.5 - - - - CALM 0 0 0 0 1012.8 1012.6 0.0
28/11:00pm 14.5 - - - - CALM 0 0 0 0 1012.9 1012.7 0.0
28/10:30pm 15.3 - - - - CALM 0 0 0 0 1013.0 1012.8 0.0
28/10:00pm 14.7 - - - - CALM 0 0 0 0 1012.9 1012.7 0.0
28/09:30pm 15.2 - - - - CALM 0 0 0 0 1013.1 1012.9 0.0
28/09:00pm 15.7 - - - - CALM 0 0 0 0 1013.1 1012.9 0.0
28/08:30pm 15.7 - - - - CALM 0 0 0 0 1013.0 1012.8 0.0
28/08:00pm 16.6 - - - - CALM 0 0 0 0 1012.8 1012.6 0.0
28/07:30pm 17.1 - - - - CALM 0 0 0 0 1012.6 1012.4 0.0
28/07:00pm 19.2 - - - - CALM 0 0 0 0 1012.5 1012.3 0.0
28/06:30pm 20.4 - - - - E 4 6 2 3 1012.3 1012.1 0.0
28/06:00pm 21.6 - - - - E 6 9 3 5 1011.7 1011.5 0.0
28/05:30pm 23.1 - - - - E 7 15 4 8 1011.4 1011.2 0.0
28/05:00pm 24.4 - - - - E 11 19 6 10 1010.8 1010.6 0.0
28/04:30pm 25.3 - - - - E 11 20 6 11 1010.4 1010.2 0.0
28/04:00pm 25.4 - - - - E 11 20 6 11 1010.2 1010.0 0.0
28/03:30pm 26.3 - - - - ESE 15 26 8 14 1009.5 1009.3 0.0
28/03:00pm 27.6 - - - - ESE 13 24 7 13 1009.7 1009.5 0.0
28/02:30pm 28.9 - - - - NW 4 6 2 3 1009.9 1009.7 0.0
28/02:00pm 28.3 - - - - E 7 13 4 7 1010.4 1010.2 0.0
28/01:30pm 27.6 - - - - SSE 9 15 5 8 1011.0 1010.8 0.0

Latest Capital City Observations: Canberra | Sydney | Melbourne | Brisbane | Adelaide | Perth | Hobart | Darwin

Other Formats:

Comma delimited format used in spreadsheet applications
http://www.bom.gov.au/fwo/IDQ60901/IDQ60901.94566.axf

JavaScript Object Notation format (JSON) in row-major order
http://www.bom.gov.au/fwo/IDQ60901/IDQ60901.94566.json